sensor_id;sensor_type;location;lat;lon;timestamp;temperature;humidity
26224;DHT22;14820;48.682;8.890;2023-06-19T00:02:14;20.50;99.30
26224;DHT22;14820;48.682;8.890;2023-06-19T00:04:40;20.50;99.30
26224;DHT22;14820;48.682;8.890;2023-06-19T00:07:05;20.40;99.50
26224;DHT22;14820;48.682;8.890;2023-06-19T00:09:32;20.40;99.90
26224;DHT22;14820;48.682;8.890;2023-06-19T00:11:58;20.30;99.90
26224;DHT22;14820;48.682;8.890;2023-06-19T00:14:25;20.30;99.90
26224;DHT22;14820;48.682;8.890;2023-06-19T00:16:51;20.20;99.90
26224;DHT22;14820;48.682;8.890;2023-06-19T00:19:17;20.20;99.90
26224;DHT22;14820;48.682;8.890;2023-06-19T00:21:43;20.10;99.90
26224;DHT22;14820;48.682;8.890;2023-06-19T00:24:10;20.10;99.90
26224;DHT22;14820;48.682;8.890;2023-06-19T00:26:35;20.10;99.90
26224;DHT22;14820;48.682;8.890;2023-06-19T00:29:01;20.00;99.90
26224;DHT22;14820;48.682;8.890;2023-06-19T00:31:27;20.10;99.90
26224;DHT22;14820;48.682;8.890;2023-06-19T00:33:53;20.00;99.90
26224;DHT22;14820;48.682;8.890;2023-06-19T00:36:19;20.00;99.90
26224;DHT22;14820;48.682;8.890;2023-06-19T00:38:51;20.10;99.90
26224;DHT22;14820;48.682;8.890;2023-06-19T00:41:17;20.00;99.90
26224;DHT22;14820;48.682;8.890;2023-06-19T00:43:43;20.00;99.90
26224;DHT22;14820;48.682;8.890;2023-06-19T00:46:09;20.00;99.90
26224;DHT22;14820;48.682;8.890;2023-06-19T00:48:36;20.00;99.90
26224;DHT22;14820;48.682;8.890;2023-06-19T00:51:02;20.00;99.90
26224;DHT22;14820;48.682;8.890;2023-06-19T00:53:27;19.90;99.90
26224;DHT22;14820;48.682;8.890;2023-06-19T00:55:55;19.90;99.90
26224;DHT22;14820;48.682;8.890;2023-06-19T00:58:22;19.80;99.90
26224;DHT22;14820;48.682;8.890;2023-06-19T01:00:48;19.90;99.90
26224;DHT22;14820;48.682;8.890;2023-06-19T01:03:14;20.10;99.90
26224;DHT22;14820;48.682;8.890;2023-06-19T01:05:40;20.30;99.90
26224;DHT22;14820;48.682;8.890;2023-06-19T01:10:51;20.60;99.70
26224;DHT22;14820;48.682;8.890;2023-06-19T01:15:58;20.80;99.30
26224;DHT22;14820;48.682;8.890;2023-06-19T01:18:24;20.80;99.40
26224;DHT22;14820;48.682;8.890;2023-06-19T01:20:52;20.90;99.80
26224;DHT22;14820;48.682;8.890;2023-06-19T01:23:18;20.90;99.90
26224;DHT22;14820;48.682;8.890;2023-06-19T01:25:43;20.90;99.90
26224;DHT22;14820;48.682;8.890;2023-06-19T01:28:10;21.00;99.90
26224;DHT22;14820;48.682;8.890;2023-06-19T01:30:40;20.90;99.90
26224;DHT22;14820;48.682;8.890;2023-06-19T01:33:15;20.90;99.90
26224;DHT22;14820;48.682;8.890;2023-06-19T01:35:42;20.90;99.90
26224;DHT22;14820;48.682;8.890;2023-06-19T01:38:08;20.90;99.90
26224;DHT22;14820;48.682;8.890;2023-06-19T01:40:35;20.80;99.90
26224;DHT22;14820;48.682;8.890;2023-06-19T01:43:02;20.80;99.90
26224;DHT22;14820;48.682;8.890;2023-06-19T01:45:30;20.80;99.90
26224;DHT22;14820;48.682;8.890;2023-06-19T01:47:56;20.80;99.90
26224;DHT22;14820;48.682;8.890;2023-06-19T01:50:23;20.80;99.90
26224;DHT22;14820;48.682;8.890;2023-06-19T01:52:49;20.70;99.90
26224;DHT22;14820;48.682;8.890;2023-06-19T01:55:15;20.80;99.90
26224;DHT22;14820;48.682;8.890;2023-06-19T01:57:41;20.70;99.90
26224;DHT22;14820;48.682;8.890;2023-06-19T02:00:07;20.70;99.90
26224;DHT22;14820;48.682;8.890;2023-06-19T02:02:33;20.70;99.90
26224;DHT22;14820;48.682;8.890;2023-06-19T02:04:59;20.80;99.90
26224;DHT22;14820;48.682;8.890;2023-06-19T02:07:25;20.80;99.90
26224;DHT22;14820;48.682;8.890;2023-06-19T02:09:50;20.80;99.90
26224;DHT22;14820;48.682;8.890;2023-06-19T02:12:16;20.70;99.90
26224;DHT22;14820;48.682;8.890;2023-06-19T02:14:42;20.80;99.90
26224;DHT22;14820;48.682;8.890;2023-06-19T02:17:07;20.70;99.90
26224;DHT22;14820;48.682;8.890;2023-06-19T02:19:33;20.70;99.90
26224;DHT22;14820;48.682;8.890;2023-06-19T02:21:59;20.70;99.90
26224;DHT22;14820;48.682;8.890;2023-06-19T02:24:24;20.70;99.90
26224;DHT22;14820;48.682;8.890;2023-06-19T02:26:51;20.70;99.90
26224;DHT22;14820;48.682;8.890;2023-06-19T02:29:16;20.70;99.90
26224;DHT22;14820;48.682;8.890;2023-06-19T02:31:42;20.70;99.90
26224;DHT22;14820;48.682;8.890;2023-06-19T02:34:08;20.70;99.90
26224;DHT22;14820;48.682;8.890;2023-06-19T02:36:37;20.70;99.90
26224;DHT22;14820;48.682;8.890;2023-06-19T02:39:04;20.60;99.90
26224;DHT22;14820;48.682;8.890;2023-06-19T02:41:31;20.60;99.90
26224;DHT22;14820;48.682;8.890;2023-06-19T02:43:57;20.60;99.90
26224;DHT22;14820;48.682;8.890;2023-06-19T02:46:23;20.60;99.90
26224;DHT22;14820;48.682;8.890;2023-06-19T02:48:48;20.60;99.90
26224;DHT22;14820;48.682;8.890;2023-06-19T02:51:14;20.70;99.90
26224;DHT22;14820;48.682;8.890;2023-06-19T02:53:39;20.70;99.90
26224;DHT22;14820;48.682;8.890;2023-06-19T02:56:07;20.70;99.90
26224;DHT22;14820;48.682;8.890;2023-06-19T02:58:33;20.70;99.90
26224;DHT22;14820;48.682;8.890;2023-06-19T03:00:59;20.70;99.90
26224;DHT22;14820;48.682;8.890;2023-06-19T03:03:25;20.70;99.90
26224;DHT22;14820;48.682;8.890;2023-06-19T03:05:51;20.70;99.90
26224;DHT22;14820;48.682;8.890;2023-06-19T03:08:16;20.60;99.90
26224;DHT22;14820;48.682;8.890;2023-06-19T03:10:42;20.60;99.90
26224;DHT22;14820;48.682;8.890;2023-06-19T03:13:08;20.50;99.90
26224;DHT22;14820;48.682;8.890;2023-06-19T03:15:33;20.60;99.90
26224;DHT22;14820;48.682;8.890;2023-06-19T03:17:59;20.50;99.90
26224;DHT22;14820;48.682;8.890;2023-06-19T03:20:28;20.40;99.90
26224;DHT22;14820;48.682;8.890;2023-06-19T03:22:54;20.40;99.90
26224;DHT22;14820;48.682;8.890;2023-06-19T03:25:19;20.30;99.90
26224;DHT22;14820;48.682;8.890;2023-06-19T03:27:45;20.20;99.90
26224;DHT22;14820;48.682;8.890;2023-06-19T03:30:11;20.20;99.90
26224;DHT22;14820;48.682;8.890;2023-06-19T03:32:38;20.10;99.90
26224;DHT22;14820;48.682;8.890;2023-06-19T03:35:04;20.00;99.90
26224;DHT22;14820;48.682;8.890;2023-06-19T03:37:30;19.90;99.90
26224;DHT22;14820;48.682;8.890;2023-06-19T03:39:58;19.70;99.90
26224;DHT22;14820;48.682;8.890;2023-06-19T03:42:23;19.60;99.90
26224;DHT22;14820;48.682;8.890;2023-06-19T03:44:49;19.50;99.90
26224;DHT22;14820;48.682;8.890;2023-06-19T03:47:15;19.30;99.90
26224;DHT22;14820;48.682;8.890;2023-06-19T03:49:41;19.30;99.90
26224;DHT22;14820;48.682;8.890;2023-06-19T03:52:07;19.10;99.90
26224;DHT22;14820;48.682;8.890;2023-06-19T03:54:33;19.10;99.90
26224;DHT22;14820;48.682;8.890;2023-06-19T03:56:59;19.00;99.90
26224;DHT22;14820;48.682;8.890;2023-06-19T03:59:24;19.10;99.90
26224;DHT22;14820;48.682;8.890;2023-06-19T04:01:50;19.00;99.90
26224;DHT22;14820;48.682;8.890;2023-06-19T04:04:16;19.00;99.90
26224;DHT22;14820;48.682;8.890;2023-06-19T04:06:41;18.90;99.90
26224;DHT22;14820;48.682;8.890;2023-06-19T04:09:07;18.80;99.90
26224;DHT22;14820;48.682;8.890;2023-06-19T04:11:33;18.80;99.90
26224;DHT22;14820;48.682;8.890;2023-06-19T04:13:58;18.70;99.90
26224;DHT22;14820;48.682;8.890;2023-06-19T04:16:24;18.70;99.90
26224;DHT22;14820;48.682;8.890;2023-06-19T04:18:49;18.70;99.90
26224;DHT22;14820;48.682;8.890;2023-06-19T04:21:15;18.70;99.90
26224;DHT22;14820;48.682;8.890;2023-06-19T04:23:41;18.70;99.90
26224;DHT22;14820;48.682;8.890;2023-06-19T04:26:07;18.70;99.90
26224;DHT22;14820;48.682;8.890;2023-06-19T04:28:33;18.70;99.90
26224;DHT22;14820;48.682;8.890;2023-06-19T04:30:58;18.80;99.90
26224;DHT22;14820;48.682;8.890;2023-06-19T04:33:28;18.70;99.90
26224;DHT22;14820;48.682;8.890;2023-06-19T04:35:54;18.70;99.90
26224;DHT22;14820;48.682;8.890;2023-06-19T04:38:20;18.80;99.90
26224;DHT22;14820;48.682;8.890;2023-06-19T04:40:53;18.90;99.90
26224;DHT22;14820;48.682;8.890;2023-06-19T04:43:19;18.90;99.90
26224;DHT22;14820;48.682;8.890;2023-06-19T04:45:45;18.90;99.90
26224;DHT22;14820;48.682;8.890;2023-06-19T04:48:11;18.90;99.90
26224;DHT22;14820;48.682;8.890;2023-06-19T04:50:37;18.90;99.90
26224;DHT22;14820;48.682;8.890;2023-06-19T04:53:03;18.90;99.90
26224;DHT22;14820;48.682;8.890;2023-06-19T04:55:28;19.00;99.90
26224;DHT22;14820;48.682;8.890;2023-06-19T04:57:54;18.90;99.90
26224;DHT22;14820;48.682;8.890;2023-06-19T05:00:20;19.00;99.90
26224;DHT22;14820;48.682;8.890;2023-06-19T05:02:49;19.00;99.90
26224;DHT22;14820;48.682;8.890;2023-06-19T05:05:15;18.90;99.90
26224;DHT22;14820;48.682;8.890;2023-06-19T05:07:41;18.90;99.90
26224;DHT22;14820;48.682;8.890;2023-06-19T05:10:07;18.80;99.90
26224;DHT22;14820;48.682;8.890;2023-06-19T05:12:34;18.80;99.90
26224;DHT22;14820;48.682;8.890;2023-06-19T05:15:00;18.80;99.90
26224;DHT22;14820;48.682;8.890;2023-06-19T05:17:26;18.80;99.90
26224;DHT22;14820;48.682;8.890;2023-06-19T05:19:51;18.80;99.90
26224;DHT22;14820;48.682;8.890;2023-06-19T05:22:17;18.80;99.90
26224;DHT22;14820;48.682;8.890;2023-06-19T05:24:44;18.90;99.90
26224;DHT22;14820;48.682;8.890;2023-06-19T05:27:10;18.90;99.90
26224;DHT22;14820;48.682;8.890;2023-06-19T05:29:36;19.00;99.90
26224;DHT22;14820;48.682;8.890;2023-06-19T05:32:01;19.10;99.90
26224;DHT22;14820;48.682;8.890;2023-06-19T05:34:27;19.10;99.90
26224;DHT22;14820;48.682;8.890;2023-06-19T05:36:53;19.20;99.90
26224;DHT22;14820;48.682;8.890;2023-06-19T05:39:18;19.30;99.90
26224;DHT22;14820;48.682;8.890;2023-06-19T05:41:44;19.20;99.90
26224;DHT22;14820;48.682;8.890;2023-06-19T05:44:11;19.20;99.90
26224;DHT22;14820;48.682;8.890;2023-06-19T05:46:41;19.30;99.90
26224;DHT22;14820;48.682;8.890;2023-06-19T05:49:07;19.30;99.90
26224;DHT22;14820;48.682;8.890;2023-06-19T05:51:33;19.30;99.90
26224;DHT22;14820;48.682;8.890;2023-06-19T05:53:58;19.30;99.90
26224;DHT22;14820;48.682;8.890;2023-06-19T05:56:29;19.30;99.90
26224;DHT22;14820;48.682;8.890;2023-06-19T05:58:55;19.30;99.90
26224;DHT22;14820;48.682;8.890;2023-06-19T06:01:20;19.40;99.90
26224;DHT22;14820;48.682;8.890;2023-06-19T06:03:46;19.40;99.90
26224;DHT22;14820;48.682;8.890;2023-06-19T06:06:12;19.40;99.90
26224;DHT22;14820;48.682;8.890;2023-06-19T06:08:37;19.50;99.90
26224;DHT22;14820;48.682;8.890;2023-06-19T06:11:03;19.40;99.90
26224;DHT22;14820;48.682;8.890;2023-06-19T06:13:28;19.40;99.90
26224;DHT22;14820;48.682;8.890;2023-06-19T06:15:54;19.40;99.90
26224;DHT22;14820;48.682;8.890;2023-06-19T06:18:20;19.50;99.90
26224;DHT22;14820;48.682;8.890;2023-06-19T06:20:45;19.50;99.90
26224;DHT22;14820;48.682;8.890;2023-06-19T06:23:11;19.50;99.90
26224;DHT22;14820;48.682;8.890;2023-06-19T06:25:37;19.50;99.90
26224;DHT22;14820;48.682;8.890;2023-06-19T06:28:02;19.60;99.90
26224;DHT22;14820;48.682;8.890;2023-06-19T06:30:28;19.50;99.90
26224;DHT22;14820;48.682;8.890;2023-06-19T06:32:54;19.60;99.90
26224;DHT22;14820;48.682;8.890;2023-06-19T06:35:19;19.70;99.90
26224;DHT22;14820;48.682;8.890;2023-06-19T06:37:45;19.70;99.90
26224;DHT22;14820;48.682;8.890;2023-06-19T06:40:11;19.80;99.90
26224;DHT22;14820;48.682;8.890;2023-06-19T06:42:38;19.80;99.90
26224;DHT22;14820;48.682;8.890;2023-06-19T06:45:05;19.90;99.90
26224;DHT22;14820;48.682;8.890;2023-06-19T06:47:32;20.00;99.90
26224;DHT22;14820;48.682;8.890;2023-06-19T06:49:57;20.10;99.90
26224;DHT22;14820;48.682;8.890;2023-06-19T06:52:23;20.10;99.90
26224;DHT22;14820;48.682;8.890;2023-06-19T06:54:49;20.30;99.90
26224;DHT22;14820;48.682;8.890;2023-06-19T06:57:16;20.40;99.90
26224;DHT22;14820;48.682;8.890;2023-06-19T06:59:41;20.60;99.90
26224;DHT22;14820;48.682;8.890;2023-06-19T07:02:07;20.70;99.90
26224;DHT22;14820;48.682;8.890;2023-06-19T07:04:33;20.70;99.90
26224;DHT22;14820;48.682;8.890;2023-06-19T07:06:58;20.80;99.90
26224;DHT22;14820;48.682;8.890;2023-06-19T07:09:24;20.80;99.90
26224;DHT22;14820;48.682;8.890;2023-06-19T07:11:50;20.80;99.90
26224;DHT22;14820;48.682;8.890;2023-06-19T07:14:16;20.90;99.90
26224;DHT22;14820;48.682;8.890;2023-06-19T07:16:44;21.00;99.90
26224;DHT22;14820;48.682;8.890;2023-06-19T07:19:11;21.00;99.90
26224;DHT22;14820;48.682;8.890;2023-06-19T07:21:37;21.10;99.90
26224;DHT22;14820;48.682;8.890;2023-06-19T07:24:04;21.10;99.90
26224;DHT22;14820;48.682;8.890;2023-06-19T07:26:31;21.20;99.90
26224;DHT22;14820;48.682;8.890;2023-06-19T07:28:56;21.30;99.90
26224;DHT22;14820;48.682;8.890;2023-06-19T07:31:22;21.50;99.90
26224;DHT22;14820;48.682;8.890;2023-06-19T07:33:48;21.60;99.90
26224;DHT22;14820;48.682;8.890;2023-06-19T07:36:14;21.80;99.90
26224;DHT22;14820;48.682;8.890;2023-06-19T07:38:42;21.90;99.90
26224;DHT22;14820;48.682;8.890;2023-06-19T07:41:08;21.90;99.90
26224;DHT22;14820;48.682;8.890;2023-06-19T07:43:35;21.90;99.90
26224;DHT22;14820;48.682;8.890;2023-06-19T07:46:01;21.90;99.90
26224;DHT22;14820;48.682;8.890;2023-06-19T07:48:27;21.80;99.90
26224;DHT22;14820;48.682;8.890;2023-06-19T07:50:53;21.80;99.90
26224;DHT22;14820;48.682;8.890;2023-06-19T07:53:19;21.80;99.90
26224;DHT22;14820;48.682;8.890;2023-06-19T07:55:45;21.80;99.90
26224;DHT22;14820;48.682;8.890;2023-06-19T07:58:11;21.80;99.90
26224;DHT22;14820;48.682;8.890;2023-06-19T08:00:37;21.80;99.90
26224;DHT22;14820;48.682;8.890;2023-06-19T08:03:03;21.80;99.90
26224;DHT22;14820;48.682;8.890;2023-06-19T08:05:29;21.80;99.90
26224;DHT22;14820;48.682;8.890;2023-06-19T08:07:56;21.80;99.90
26224;DHT22;14820;48.682;8.890;2023-06-19T08:10:22;21.80;99.90
26224;DHT22;14820;48.682;8.890;2023-06-19T08:12:48;21.80;99.90
26224;DHT22;14820;48.682;8.890;2023-06-19T08:15:13;21.90;99.90
26224;DHT22;14820;48.682;8.890;2023-06-19T08:17:39;22.00;99.90
26224;DHT22;14820;48.682;8.890;2023-06-19T08:20:06;22.10;99.90
26224;DHT22;14820;48.682;8.890;2023-06-19T08:22:33;22.10;99.90
26224;DHT22;14820;48.682;8.890;2023-06-19T08:24:58;22.20;99.90
26224;DHT22;14820;48.682;8.890;2023-06-19T08:27:24;22.30;99.90
26224;DHT22;14820;48.682;8.890;2023-06-19T08:29:49;22.40;99.90
26224;DHT22;14820;48.682;8.890;2023-06-19T08:32:16;22.50;99.90
26224;DHT22;14820;48.682;8.890;2023-06-19T08:34:42;22.60;99.90
26224;DHT22;14820;48.682;8.890;2023-06-19T08:37:08;22.60;99.90
26224;DHT22;14820;48.682;8.890;2023-06-19T08:39:34;22.60;99.90
26224;DHT22;14820;48.682;8.890;2023-06-19T08:42:04;22.70;99.90
26224;DHT22;14820;48.682;8.890;2023-06-19T08:44:29;22.60;99.90
26224;DHT22;14820;48.682;8.890;2023-06-19T08:46:57;22.70;99.90
26224;DHT22;14820;48.682;8.890;2023-06-19T08:49:22;22.80;99.90
26224;DHT22;14820;48.682;8.890;2023-06-19T08:51:48;22.90;99.90
26224;DHT22;14820;48.682;8.890;2023-06-19T08:54:14;23.00;99.90
26224;DHT22;14820;48.682;8.890;2023-06-19T08:56:39;23.10;99.90
26224;DHT22;14820;48.682;8.890;2023-06-19T08:59:13;23.00;99.90
26224;DHT22;14820;48.682;8.890;2023-06-19T09:01:45;23.10;99.90
26224;DHT22;14820;48.682;8.890;2023-06-19T09:04:21;23.20;99.90
26224;DHT22;14820;48.682;8.890;2023-06-19T09:06:50;23.20;99.90
26224;DHT22;14820;48.682;8.890;2023-06-19T09:09:18;23.30;99.90
26224;DHT22;14820;48.682;8.890;2023-06-19T09:17:02;23.60;99.90
26224;DHT22;14820;48.682;8.890;2023-06-19T09:19:28;23.70;99.90
26224;DHT22;14820;48.682;8.890;2023-06-19T09:21:58;23.80;99.90
26224;DHT22;14820;48.682;8.890;2023-06-19T09:24:36;23.90;99.90
26224;DHT22;14820;48.682;8.890;2023-06-19T09:27:13;24.00;99.90
26224;DHT22;14820;48.682;8.890;2023-06-19T09:29:44;24.10;99.90
26224;DHT22;14820;48.682;8.890;2023-06-19T09:32:24;24.30;99.90
26224;DHT22;14820;48.682;8.890;2023-06-19T09:34:52;24.40;99.90
26224;DHT22;14820;48.682;8.890;2023-06-19T09:37:22;24.60;99.90
26224;DHT22;14820;48.682;8.890;2023-06-19T09:39:55;24.80;99.90
26224;DHT22;14820;48.682;8.890;2023-06-19T09:42:27;25.00;99.90
26224;DHT22;14820;48.682;8.890;2023-06-19T09:44:59;25.10;99.90
26224;DHT22;14820;48.682;8.890;2023-06-19T09:47:32;25.30;99.90
26224;DHT22;14820;48.682;8.890;2023-06-19T09:50:01;25.50;99.90
26224;DHT22;14820;48.682;8.890;2023-06-19T09:52:27;25.50;99.90
26224;DHT22;14820;48.682;8.890;2023-06-19T09:54:54;25.50;99.90
26224;DHT22;14820;48.682;8.890;2023-06-19T09:57:21;25.70;99.90
26224;DHT22;14820;48.682;8.890;2023-06-19T09:59:48;25.70;99.90
26224;DHT22;14820;48.682;8.890;2023-06-19T10:02:16;25.70;99.90
26224;DHT22;14820;48.682;8.890;2023-06-19T10:04:54;25.80;99.90
26224;DHT22;14820;48.682;8.890;2023-06-19T10:07:26;25.80;99.90
26224;DHT22;14820;48.682;8.890;2023-06-19T10:12:34;26.00;99.90
26224;DHT22;14820;48.682;8.890;2023-06-19T10:17:38;26.00;99.90
26224;DHT22;14820;48.682;8.890;2023-06-19T10:20:36;26.10;99.90
26224;DHT22;14820;48.682;8.890;2023-06-19T10:25:35;26.10;99.90
26224;DHT22;14820;48.682;8.890;2023-06-19T10:28:01;26.00;99.90
26224;DHT22;14820;48.682;8.890;2023-06-19T10:30:27;25.90;99.90
26224;DHT22;14820;48.682;8.890;2023-06-19T10:32:55;25.80;99.90
26224;DHT22;14820;48.682;8.890;2023-06-19T10:35:20;25.70;99.90
26224;DHT22;14820;48.682;8.890;2023-06-19T10:37:50;25.70;99.90
26224;DHT22;14820;48.682;8.890;2023-06-19T10:40:16;25.70;99.90
26224;DHT22;14820;48.682;8.890;2023-06-19T10:42:43;25.90;99.90
26224;DHT22;14820;48.682;8.890;2023-06-19T10:45:11;26.00;99.90
26224;DHT22;14820;48.682;8.890;2023-06-19T10:47:42;26.00;99.90
26224;DHT22;14820;48.682;8.890;2023-06-19T10:50:13;26.10;99.90
26224;DHT22;14820;48.682;8.890;2023-06-19T10:52:43;26.20;99.90
26224;DHT22;14820;48.682;8.890;2023-06-19T10:55:10;26.20;99.90
26224;DHT22;14820;48.682;8.890;2023-06-19T10:57:36;26.30;99.90
26224;DHT22;14820;48.682;8.890;2023-06-19T11:00:03;26.40;99.90
26224;DHT22;14820;48.682;8.890;2023-06-19T11:02:37;26.50;99.90
26224;DHT22;14820;48.682;8.890;2023-06-19T11:05:05;26.50;99.90
26224;DHT22;14820;48.682;8.890;2023-06-19T11:07:32;26.40;99.90
26224;DHT22;14820;48.682;8.890;2023-06-19T11:09:58;26.50;99.90
26224;DHT22;14820;48.682;8.890;2023-06-19T11:12:23;26.50;99.90
26224;DHT22;14820;48.682;8.890;2023-06-19T11:14:50;26.40;99.90
26224;DHT22;14820;48.682;8.890;2023-06-19T11:17:16;26.40;99.90
26224;DHT22;14820;48.682;8.890;2023-06-19T11:19:43;26.50;99.90
26224;DHT22;14820;48.682;8.890;2023-06-19T11:22:10;26.70;99.90
26224;DHT22;14820;48.682;8.890;2023-06-19T11:24:36;26.80;99.90
26224;DHT22;14820;48.682;8.890;2023-06-19T11:27:02;26.80;99.90
26224;DHT22;14820;48.682;8.890;2023-06-19T11:29:33;26.80;99.90
26224;DHT22;14820;48.682;8.890;2023-06-19T11:32:07;26.80;99.90
26224;DHT22;14820;48.682;8.890;2023-06-19T11:34:34;26.90;99.90
26224;DHT22;14820;48.682;8.890;2023-06-19T11:37:11;27.10;99.90
26224;DHT22;14820;48.682;8.890;2023-06-19T11:39:38;27.20;99.90
26224;DHT22;14820;48.682;8.890;2023-06-19T11:42:04;27.20;99.90
26224;DHT22;14820;48.682;8.890;2023-06-19T11:44:29;27.10;99.90
26224;DHT22;14820;48.682;8.890;2023-06-19T11:46:58;27.10;99.90
26224;DHT22;14820;48.682;8.890;2023-06-19T11:49:24;27.00;99.90
26224;DHT22;14820;48.682;8.890;2023-06-19T11:51:50;27.00;99.90
26224;DHT22;14820;48.682;8.890;2023-06-19T11:54:16;27.00;99.90
26224;DHT22;14820;48.682;8.890;2023-06-19T11:56:43;27.00;99.90
26224;DHT22;14820;48.682;8.890;2023-06-19T11:59:09;27.00;99.90
26224;DHT22;14820;48.682;8.890;2023-06-19T12:01:35;26.90;99.90
26224;DHT22;14820;48.682;8.890;2023-06-19T12:04:02;27.00;99.90
26224;DHT22;14820;48.682;8.890;2023-06-19T12:06:29;27.00;99.90
26224;DHT22;14820;48.682;8.890;2023-06-19T12:08:54;26.90;99.90
26224;DHT22;14820;48.682;8.890;2023-06-19T12:11:20;27.00;99.90
26224;DHT22;14820;48.682;8.890;2023-06-19T12:13:46;26.90;99.90
26224;DHT22;14820;48.682;8.890;2023-06-19T12:16:13;26.90;99.90
26224;DHT22;14820;48.682;8.890;2023-06-19T12:18:39;26.80;99.90
26224;DHT22;14820;48.682;8.890;2023-06-19T12:21:05;26.80;99.90
26224;DHT22;14820;48.682;8.890;2023-06-19T12:23:30;26.70;99.90
26224;DHT22;14820;48.682;8.890;2023-06-19T12:25:56;26.70;99.90
26224;DHT22;14820;48.682;8.890;2023-06-19T12:28:22;26.70;99.90
26224;DHT22;14820;48.682;8.890;2023-06-19T12:30:48;26.80;99.90
26224;DHT22;14820;48.682;8.890;2023-06-19T12:33:17;26.80;99.90
26224;DHT22;14820;48.682;8.890;2023-06-19T12:35:43;26.80;99.90
26224;DHT22;14820;48.682;8.890;2023-06-19T12:38:10;26.80;99.90
26224;DHT22;14820;48.682;8.890;2023-06-19T12:40:39;26.80;99.90
26224;DHT22;14820;48.682;8.890;2023-06-19T12:43:05;26.90;99.90
26224;DHT22;14820;48.682;8.890;2023-06-19T12:45:30;27.00;99.90
26224;DHT22;14820;48.682;8.890;2023-06-19T12:47:56;27.10;99.90
26224;DHT22;14820;48.682;8.890;2023-06-19T12:50:22;27.20;99.90
26224;DHT22;14820;48.682;8.890;2023-06-19T12:52:48;27.30;99.90
26224;DHT22;14820;48.682;8.890;2023-06-19T12:55:14;27.40;99.90
26224;DHT22;14820;48.682;8.890;2023-06-19T12:57:40;27.40;99.90
26224;DHT22;14820;48.682;8.890;2023-06-19T13:00:09;27.50;99.90
26224;DHT22;14820;48.682;8.890;2023-06-19T13:02:35;27.50;99.60
26224;DHT22;14820;48.682;8.890;2023-06-19T13:05:01;27.60;99.90
26224;DHT22;14820;48.682;8.890;2023-06-19T13:07:26;27.60;99.90
26224;DHT22;14820;48.682;8.890;2023-06-19T13:09:52;27.60;99.90
26224;DHT22;14820;48.682;8.890;2023-06-19T13:12:18;27.60;99.90
26224;DHT22;14820;48.682;8.890;2023-06-19T13:14:43;27.60;99.90
26224;DHT22;14820;48.682;8.890;2023-06-19T13:17:09;27.60;99.60
26224;DHT22;14820;48.682;8.890;2023-06-19T13:19:34;27.60;99.70
26224;DHT22;14820;48.682;8.890;2023-06-19T13:22:00;27.60;99.70
26224;DHT22;14820;48.682;8.890;2023-06-19T13:24:26;27.60;99.80
26224;DHT22;14820;48.682;8.890;2023-06-19T13:26:54;27.50;99.00
26224;DHT22;14820;48.682;8.890;2023-06-19T13:29:20;27.40;99.00
26224;DHT22;14820;48.682;8.890;2023-06-19T13:31:46;27.30;99.10
26224;DHT22;14820;48.682;8.890;2023-06-19T13:34:12;27.30;99.30
26224;DHT22;14820;48.682;8.890;2023-06-19T13:36:38;27.30;99.10
26224;DHT22;14820;48.682;8.890;2023-06-19T13:39:05;27.40;99.10
26224;DHT22;14820;48.682;8.890;2023-06-19T13:41:31;27.50;99.30
26224;DHT22;14820;48.682;8.890;2023-06-19T13:44:01;27.40;99.10
26224;DHT22;14820;48.682;8.890;2023-06-19T13:46:27;27.40;99.30
26224;DHT22;14820;48.682;8.890;2023-06-19T13:48:53;27.40;99.30
26224;DHT22;14820;48.682;8.890;2023-06-19T13:51:22;27.50;99.20
26224;DHT22;14820;48.682;8.890;2023-06-19T13:53:49;27.50;98.70
26224;DHT22;14820;48.682;8.890;2023-06-19T13:56:15;27.50;99.00
26224;DHT22;14820;48.682;8.890;2023-06-19T13:58:41;27.50;99.40
26224;DHT22;14820;48.682;8.890;2023-06-19T14:01:07;27.50;99.60
26224;DHT22;14820;48.682;8.890;2023-06-19T14:03:34;27.60;99.60
26224;DHT22;14820;48.682;8.890;2023-06-19T14:05:59;27.60;99.90
26224;DHT22;14820;48.682;8.890;2023-06-19T14:08:25;27.60;99.60
26224;DHT22;14820;48.682;8.890;2023-06-19T14:10:51;27.60;99.60
26224;DHT22;14820;48.682;8.890;2023-06-19T14:13:17;27.60;98.70
26224;DHT22;14820;48.682;8.890;2023-06-19T14:15:42;27.60;99.00
26224;DHT22;14820;48.682;8.890;2023-06-19T14:18:08;27.60;98.00
26224;DHT22;14820;48.682;8.890;2023-06-19T14:20:34;27.60;98.50
26224;DHT22;14820;48.682;8.890;2023-06-19T14:23:00;27.60;98.60
26224;DHT22;14820;48.682;8.890;2023-06-19T14:25:25;27.50;98.20
26224;DHT22;14820;48.682;8.890;2023-06-19T14:27:51;27.50;98.70
26224;DHT22;14820;48.682;8.890;2023-06-19T14:30:18;27.50;98.00
26224;DHT22;14820;48.682;8.890;2023-06-19T14:32:44;27.50;98.10
26224;DHT22;14820;48.682;8.890;2023-06-19T14:35:10;27.60;98.20
26224;DHT22;14820;48.682;8.890;2023-06-19T14:37:35;27.70;98.20
26224;DHT22;14820;48.682;8.890;2023-06-19T14:40:01;27.80;98.60
26224;DHT22;14820;48.682;8.890;2023-06-19T14:42:28;27.90;98.20
26224;DHT22;14820;48.682;8.890;2023-06-19T14:44:54;27.90;97.40
26224;DHT22;14820;48.682;8.890;2023-06-19T14:47:20;28.00;96.70
26224;DHT22;14820;48.682;8.890;2023-06-19T14:49:46;28.00;96.60
26224;DHT22;14820;48.682;8.890;2023-06-19T14:52:11;28.00;95.80
26224;DHT22;14820;48.682;8.890;2023-06-19T14:54:37;28.10;95.60
26224;DHT22;14820;48.682;8.890;2023-06-19T14:57:03;28.30;96.60
26224;DHT22;14820;48.682;8.890;2023-06-19T14:59:30;28.30;95.80
26224;DHT22;14820;48.682;8.890;2023-06-19T15:01:56;28.20;95.20
26224;DHT22;14820;48.682;8.890;2023-06-19T15:04:21;28.20;95.20
26224;DHT22;14820;48.682;8.890;2023-06-19T15:06:48;28.00;94.20
26224;DHT22;14820;48.682;8.890;2023-06-19T15:09:13;28.00;93.90
26224;DHT22;14820;48.682;8.890;2023-06-19T15:11:39;27.90;94.40
26224;DHT22;14820;48.682;8.890;2023-06-19T15:14:05;27.80;94.10
26224;DHT22;14820;48.682;8.890;2023-06-19T15:16:30;27.70;93.80
26224;DHT22;14820;48.682;8.890;2023-06-19T15:18:56;27.60;94.20
26224;DHT22;14820;48.682;8.890;2023-06-19T15:21:22;27.70;95.20
26224;DHT22;14820;48.682;8.890;2023-06-19T15:23:48;27.60;94.60
26224;DHT22;14820;48.682;8.890;2023-06-19T15:26:14;27.60;94.10
26224;DHT22;14820;48.682;8.890;2023-06-19T15:28:40;27.60;94.70
26224;DHT22;14820;48.682;8.890;2023-06-19T15:31:09;27.60;96.40
26224;DHT22;14820;48.682;8.890;2023-06-19T15:33:34;27.60;98.10
26224;DHT22;14820;48.682;8.890;2023-06-19T15:36:00;27.70;97.80
26224;DHT22;14820;48.682;8.890;2023-06-19T15:38:26;27.90;98.20
26224;DHT22;14820;48.682;8.890;2023-06-19T15:40:52;28.00;98.20
26224;DHT22;14820;48.682;8.890;2023-06-19T15:43:18;28.00;98.10
26224;DHT22;14820;48.682;8.890;2023-06-19T15:45:43;28.10;98.20